APL Thailand — WCX8882 — position and weather

sailwx.info

Track history (hours):
 
Tides and Currents Weather Stations Pressure Air Temp Water Temp Dewpoint Dewpoint Depression Visibility Wind Speed Wind Dir Waves Ship Positions

APL Thailand

Owner: APL Maritime, Ltd, Rockville, MD. More information available from US FCC via Universal Licensing System and Coast Guard Vessel Documentation Center.

Last reported at 2018-May-19 14:35 UTC. Time now 2018-May-28 03:09 UTC.
Position N 35°03' E 129°16'.
Warning: this ship's position is 8 days out of date.

Length 276.3 m; beam 40 m; draft 14 m.

Type: Cargo ship. MMSI: 368686000.

Date/timePositionNaut miles runAvg speedWind from/ knotsBaromVisibWave heightAir tempDewpointWater temp
2018-May-19 14:35N 35°03' E 129°16'420.4
2018-May-19 14:23N 35°01' E 129°11'819.9
2018-May-19 14:00N 34°58' E 129°02'11 0.6
2018-May-18 19:02N 34°58' E 128°49'39319.3
2018-May-17 22:41N 31°05' E 122°32'511.1
2018-May-17 22:14N 31°06' E 122°26'312.8
2018-May-17 21:59N 31°06' E 122°23'713.9
2018-May-17 21:28N 31°08' E 122°15'714.7
2018-May-17 21:00N 31°12' E 122°08'714.0
2018-May-17 20:30N 31°15' E 122°00'713.7
2018-May-17 20:00N 31°16' E 121°53'714.3
2018-May-17 19:30N 31°19' E 121°45'9 0.3
2018-May-16 17:11N 31°23' E 121°35'0 2.5
2018-May-16 17:00N 31°23' E 121°36'4 7.6
2018-May-16 16:25N 31°21' E 121°40'4 9.4
2018-May-16 15:58N 31°19' E 121°45'7 9.6
2018-May-16 15:11N 31°16' E 121°53'312.1
2018-May-16 14:58N 31°15' E 121°56'511.3
2018-May-16 14:30N 31°14' E 122°02'711.4
2018-May-16 13:55N 31°12' E 122°09'511.5
2018-May-16 13:30N 31°09' E 122°14'5 9.6
2018-May-16 13:00N 31°06' E 122°18'510.5
2018-May-16 12:28N 31°07' E 122°25'4 9.0
2018-May-16 12:00N 31°08' E 122°29'4 6.9
2018-May-16 11:30N 31°11' E 122°32'3 6.9
2018-May-16 11:00N 31°14' E 122°34'0 0.3
2018-May-16 10:30N 31°14' E 122°34'0 0.2
2018-May-16 10:00N 31°14' E 122°34'0 0.0
2018-May-16 09:30N 31°14' E 122°34'0 0.1
2018-May-16 09:00N 31°14' E 122°34'0 0.1
2018-May-16 08:30N 31°14' E 122°34'0 0.1
2018-May-16 08:00N 31°14' E 122°34'0 0.1
2018-May-16 07:29N 31°14' E 122°34'0 0.0
2018-May-16 07:00N 31°14' E 122°34'0 0.1
2018-May-16 06:30N 31°14' E 122°34'0 0.0
2018-May-16 06:00N 31°14' E 122°34'0 0.1
2018-May-16 05:30N 31°14' E 122°34'0 0.1
2018-May-16 04:57N 31°14' E 122°34'0 0.0
2018-May-16 04:23N 31°14' E 122°34'0 0.0
2018-May-16 04:00N 31°14' E 122°34'0 0.1
2018-May-16 03:30N 31°14' E 122°34'0 0.0
2018-May-16 02:29N 31°14' E 122°34'2 0.8
2018-May-16 00:21N 31°12' E 122°35'0 0.2
2018-May-15 23:46N 31°12' E 122°35'0 0.0
2018-May-15 23:21N 31°12' E 122°35'31913.6
2018-May-15 00:00N 27°18' E 126°42'45412.3 180 / 131014.010.8 31.026.927.0
2018-May-13 10:56N 34°38' E 128°53'20 0.9
2018-May-12 12:08N 34°58' E 128°49'32312.4
2018-May-11 10:00N 32°37' E 134°40'21320.1
2018-May-10 23:25N 34°14' E 138°27'820.0
2018-May-10 22:59N 34°18' E 138°36'1120.0
2018-May-10 22:27N 34°22' E 138°48'920.0
2018-May-10 22:00N 34°26' E 138°58'1019.0
2018-May-10 21:30N 34°30' E 139°08'918.9
2018-May-10 21:01N 34°35' E 139°18'1019.6
2018-May-10 20:29N 34°40' E 139°29'1020.2
2018-May-10 20:00N 34°49' E 139°34'1020.2
2018-May-10 19:30N 34°58' E 139°38'1019.3
2018-May-10 19:00N 35°07' E 139°44'714.1
2018-May-10 18:30N 35°13' E 139°46'612.3
2018-May-10 18:01N 35°19' E 139°43'612.7
2018-May-10 17:30N 35°25' E 139°42'2 3.1
2018-May-10 17:01N 35°26' E 139°41'0 0.2
2018-May-10 16:30N 35°26' E 139°41'0 0.0
2018-May-10 16:00N 35°26' E 139°41'0 0.0
2018-May-10 15:30N 35°26' E 139°41'0 0.0
2018-May-10 15:00N 35°26' E 139°41'0 0.0
2018-May-10 14:30N 35°26' E 139°41'0 0.0
2018-May-10 14:00N 35°26' E 139°41'0 0.0
2018-May-10 13:30N 35°26' E 139°41'0 0.0
2018-May-10 13:00N 35°26' E 139°41'0 0.1
2018-May-10 12:30N 35°26' E 139°41'0 0.1
2018-May-10 12:00N 35°26' E 139°41'0 0.0
2018-May-10 11:30N 35°26' E 139°41'0 0.0
2018-May-10 11:00N 35°26' E 139°41'0 0.0
2018-May-10 10:30N 35°26' E 139°41'0 0.0
2018-May-10 10:00N 35°26' E 139°41'0 0.0
2018-May-10 09:30N 35°26' E 139°41'0 0.0
2018-May-10 09:00N 35°26' E 139°41'0 0.0
2018-May-10 08:30N 35°26' E 139°41'0 0.0
2018-May-10 08:00N 35°26' E 139°41'0 0.0
2018-May-10 07:28N 35°26' E 139°41'0 0.0
2018-May-10 07:00N 35°26' E 139°41'0 0.0
2018-May-10 06:30N 35°26' E 139°41'0 0.0
2018-May-10 06:00N 35°26' E 139°41'0 0.0
2018-May-10 05:27N 35°26' E 139°41'0 0.1
2018-May-10 05:00N 35°26' E 139°41'0 0.0
2018-May-10 04:30N 35°26' E 139°41'0 0.1
2018-May-10 04:00N 35°26' E 139°41'0 0.0
2018-May-10 03:30N 35°26' E 139°41'0 0.0
2018-May-10 03:00N 35°26' E 139°41'0 0.0
2018-May-10 02:30N 35°26' E 139°41'0 0.0
2018-May-10 02:00N 35°26' E 139°41'0 0.0
2018-May-10 01:30N 35°26' E 139°41'0 0.1
2018-May-10 01:00N 35°26' E 139°41'0 0.1
2018-May-10 00:29N 35°26' E 139°41'0 0.0
2018-May-09 23:59N 35°26' E 139°41'0 0.0
2018-May-09 23:29N 35°26' E 139°41'0 0.0
2018-May-09 23:00N 35°26' E 139°41'1 1.7
2018-May-09 22:30N 35°26' E 139°42'3 6.4
2018-May-09 22:00N 35°23' E 139°43'510.4
2018-May-09 21:30N 35°18' E 139°44'611.9
2018-May-09 21:00N 35°13' E 139°47'510.5
2018-May-09 20:30N 35°08' E 139°45'917.3
2018-May-09 20:00N 35°01' E 139°39'1019.7
2018-May-09 19:30N 34°51' E 139°38'1222.0
2018-May-09 18:59N 34°48' E 139°52'919.8
2018-May-09 18:30N 34°46' E 140°03'1120.4
2018-May-09 17:59N 34°52' E 140°14'1121.8
2018-May-09 17:30N 34°58' E 140°25'  
Track history (hours):
 
Tides and Currents Weather Stations Pressure Air Temp Water Temp Dewpoint Dewpoint Depression Visibility Wind Speed Wind Dir Waves Ship Positions

APL Thailand

Owner: APL Maritime, Ltd, Rockville, MD. More information available from US FCC via Universal Licensing System and Coast Guard Vessel Documentation Center.

Last reported at 2018-May-19 14:35 UTC. Time now 2018-May-28 03:09 UTC.
Position N 35°03' E 129°16'.
Warning: this ship's position is 8 days out of date.

Length 276.3 m; beam 40 m; draft 14 m.

Type: Cargo ship. MMSI: 368686000.

Date/timePositionNaut miles runAvg speedWind from/ knotsBaromVisibWave heightAir tempDewpointWater temp
2018-May-19 14:35N 35°03' E 129°16'420.4
2018-May-19 14:23N 35°01' E 129°11'819.9
2018-May-19 14:00N 34°58' E 129°02'11 0.6
2018-May-18 19:02N 34°58' E 128°49'39319.3
2018-May-17 22:41N 31°05' E 122°32'511.1
2018-May-17 22:14N 31°06' E 122°26'312.8
2018-May-17 21:59N 31°06' E 122°23'713.9
2018-May-17 21:28N 31°08' E 122°15'714.7
2018-May-17 21:00N 31°12' E 122°08'714.0
2018-May-17 20:30N 31°15' E 122°00'713.7
2018-May-17 20:00N 31°16' E 121°53'714.3
2018-May-17 19:30N 31°19' E 121°45'9 0.3
2018-May-16 17:11N 31°23' E 121°35'0 2.5
2018-May-16 17:00N 31°23' E 121°36'4 7.6
2018-May-16 16:25N 31°21' E 121°40'4 9.4
2018-May-16 15:58N 31°19' E 121°45'7 9.6
2018-May-16 15:11N 31°16' E 121°53'312.1
2018-May-16 14:58N 31°15' E 121°56'511.3
2018-May-16 14:30N 31°14' E 122°02'711.4
2018-May-16 13:55N 31°12' E 122°09'511.5
2018-May-16 13:30N 31°09' E 122°14'5 9.6
2018-May-16 13:00N 31°06' E 122°18'510.5
2018-May-16 12:28N 31°07' E 122°25'4 9.0
2018-May-16 12:00N 31°08' E 122°29'4 6.9
2018-May-16 11:30N 31°11' E 122°32'3 6.9
2018-May-16 11:00N 31°14' E 122°34'0 0.3
2018-May-16 10:30N 31°14' E 122°34'0 0.2
2018-May-16 10:00N 31°14' E 122°34'0 0.0
2018-May-16 09:30N 31°14' E 122°34'0 0.1
2018-May-16 09:00N 31°14' E 122°34'0 0.1
2018-May-16 08:30N 31°14' E 122°34'0 0.1
2018-May-16 08:00N 31°14' E 122°34'0 0.1
2018-May-16 07:29N 31°14' E 122°34'0 0.0
2018-May-16 07:00N 31°14' E 122°34'0 0.1
2018-May-16 06:30N 31°14' E 122°34'0 0.0
2018-May-16 06:00N 31°14' E 122°34'0 0.1
2018-May-16 05:30N 31°14' E 122°34'0 0.1
2018-May-16 04:57N 31°14' E 122°34'0 0.0
2018-May-16 04:23N 31°14' E 122°34'0 0.0
2018-May-16 04:00N 31°14' E 122°34'0 0.1
2018-May-16 03:30N 31°14' E 122°34'0 0.0
2018-May-16 02:29N 31°14' E 122°34'2 0.8
2018-May-16 00:21N 31°12' E 122°35'0 0.2
2018-May-15 23:46N 31°12' E 122°35'0 0.0
2018-May-15 23:21N 31°12' E 122°35'31913.6
2018-May-15 00:00N 27°18' E 126°42'45412.3 180 / 131014.010.8 31.026.927.0
2018-May-13 10:56N 34°38' E 128°53'20 0.9
2018-May-12 12:08N 34°58' E 128°49'32312.4
2018-May-11 10:00N 32°37' E 134°40'21320.1
2018-May-10 23:25N 34°14' E 138°27'820.0
2018-May-10 22:59N 34°18' E 138°36'1120.0
2018-May-10 22:27N 34°22' E 138°48'920.0
2018-May-10 22:00N 34°26' E 138°58'1019.0
2018-May-10 21:30N 34°30' E 139°08'918.9
2018-May-10 21:01N 34°35' E 139°18'1019.6
2018-May-10 20:29N 34°40' E 139°29'1020.2
2018-May-10 20:00N 34°49' E 139°34'1020.2
2018-May-10 19:30N 34°58' E 139°38'1019.3
2018-May-10 19:00N 35°07' E 139°44'714.1
2018-May-10 18:30N 35°13' E 139°46'612.3
2018-May-10 18:01N 35°19' E 139°43'612.7
2018-May-10 17:30N 35°25' E 139°42'2 3.1
2018-May-10 17:01N 35°26' E 139°41'0 0.2
2018-May-10 16:30N 35°26' E 139°41'0 0.0
2018-May-10 16:00N 35°26' E 139°41'0 0.0
2018-May-10 15:30N 35°26' E 139°41'0 0.0
2018-May-10 15:00N 35°26' E 139°41'0 0.0
2018-May-10 14:30N 35°26' E 139°41'0 0.0
2018-May-10 14:00N 35°26' E 139°41'0 0.0
2018-May-10 13:30N 35°26' E 139°41'0 0.0
2018-May-10 13:00N 35°26' E 139°41'0 0.1
2018-May-10 12:30N 35°26' E 139°41'0 0.1
2018-May-10 12:00N 35°26' E 139°41'0 0.0
2018-May-10 11:30N 35°26' E 139°41'0 0.0
2018-May-10 11:00N 35°26' E 139°41'0 0.0
2018-May-10 10:30N 35°26' E 139°41'0 0.0
2018-May-10 10:00N 35°26' E 139°41'0 0.0
2018-May-10 09:30N 35°26' E 139°41'0 0.0
2018-May-10 09:00N 35°26' E 139°41'0 0.0
2018-May-10 08:30N 35°26' E 139°41'0 0.0
2018-May-10 08:00N 35°26' E 139°41'0 0.0
2018-May-10 07:28N 35°26' E 139°41'0 0.0
2018-May-10 07:00N 35°26' E 139°41'0 0.0
2018-May-10 06:30N 35°26' E 139°41'0 0.0
2018-May-10 06:00N 35°26' E 139°41'0 0.0
2018-May-10 05:27N 35°26' E 139°41'0 0.1
2018-May-10 05:00N 35°26' E 139°41'0 0.0
2018-May-10 04:30N 35°26' E 139°41'0 0.1
2018-May-10 04:00N 35°26' E 139°41'0 0.0
2018-May-10 03:30N 35°26' E 139°41'0 0.0
2018-May-10 03:00N 35°26' E 139°41'0 0.0
2018-May-10 02:30N 35°26' E 139°41'0 0.0
2018-May-10 02:00N 35°26' E 139°41'0 0.0
2018-May-10 01:30N 35°26' E 139°41'0 0.1
2018-May-10 01:00N 35°26' E 139°41'0 0.1
2018-May-10 00:29N 35°26' E 139°41'0 0.0
2018-May-09 23:59N 35°26' E 139°41'0 0.0
2018-May-09 23:29N 35°26' E 139°41'0 0.0
2018-May-09 23:00N 35°26' E 139°41'1 1.7
2018-May-09 22:30N 35°26' E 139°42'3 6.4
2018-May-09 22:00N 35°23' E 139°43'510.4
2018-May-09 21:30N 35°18' E 139°44'611.9
2018-May-09 21:00N 35°13' E 139°47'510.5
2018-May-09 20:30N 35°08' E 139°45'917.3
2018-May-09 20:00N 35°01' E 139°39'1019.7
2018-May-09 19:30N 34°51' E 139°38'1222.0
2018-May-09 18:59N 34°48' E 139°52'919.8
2018-May-09 18:30N 34°46' E 140°03'1120.4
2018-May-09 17:59N 34°52' E 140°14'1121.8
2018-May-09 17:30N 34°58' E 140°25'  

Dump ship's entire track history